Airport Name : Sheremetyevo

Other Name : Sheremetyevo

ICAO : UUEE

IATA : SVO

FAA :

Latitude : 55.972642

Longitude : 37.414589

Country : Russia

Local Date and Time : 10/16/2018 12:59:00 AM

 

TAF (Terminal Aerodrome Forecast)

TAF UUEE 151954Z 1521/1621 24003MPS 3100 BR FEW006 TX16/1612Z TN06/1603Z TEMPO 1522/1606 0300 FG VV001 BECMG 1606/1608 9999 NSW SCT030

 

METAR (METeorological Aerodrome Report)

UUEE 152130Z 24003MPS CAVOK 07/06 Q1026 R24L/CLRD62 NOSIG

UUEE 152100Z 24003MPS CAVOK 08/07 Q1026 R24L/CLRD62 R24C/CLRD62 NOSIG

UUEE 152030Z 24003MPS CAVOK 08/07 Q1026 R24L/CLRD62 R24C/CLRD62 NOSIG

UUEE 152000Z 24002MPS CAVOK 08/06 Q1026 R24L/CLRD62 R24C/CLRD62 NOSIG

UUEE 151930Z 24004MPS CAVOK 09/07 Q1026 R24C/CLRD62 R24L/CLRD62 NOSIG

UUEE 151900Z 23005MPS CAVOK 12/08 Q1026 R24C/CLRD62 R24L/CLRD62 NOSIG

UUEE 151830Z 24005MPS CAVOK 11/07 Q1026 R24C/CLRD62 R24L/CLRD62 NOSIG

UUEE 151800Z 23005MPS CAVOK 12/08 Q1026 R24C/CLRD62 R24L/CLRD62 NOSIG